createdAt,value
2022-12-03T00:02:28.708Z,19.20
2022-12-03T00:05:49.070Z,18.80
2022-12-03T00:08:52.243Z,18.30
2022-12-03T00:11:56.767Z,18.20
2022-12-03T00:14:59.620Z,17.70
2022-12-03T00:18:02.469Z,17.30
2022-12-03T00:21:05.523Z,18.40
2022-12-03T00:24:08.852Z,19.70
2022-12-03T00:27:11.741Z,21.00
2022-12-03T00:30:15.507Z,21.00
2022-12-03T00:33:18.348Z,17.90
2022-12-03T00:36:21.115Z,17.40
2022-12-03T00:39:24.083Z,18.10
2022-12-03T00:42:26.860Z,19.20
2022-12-03T00:45:35.381Z,18.20
2022-12-03T00:48:38.391Z,15.50
2022-12-03T00:51:41.643Z,17.80
2022-12-03T00:54:44.566Z,17.80
2022-12-03T00:57:47.403Z,15.90
2022-12-03T01:00:50.226Z,17.40
2022-12-03T01:03:52.972Z,19.00
2022-12-03T01:06:56.053Z,16.80
2022-12-03T01:09:58.854Z,16.20
2022-12-03T01:13:02.744Z,17.50
2022-12-03T01:16:07.077Z,19.10
2022-12-03T01:19:11.311Z,17.10
2022-12-03T01:22:14.321Z,16.90
2022-12-03T01:25:17.318Z,17.70
2022-12-03T01:28:20.079Z,18.60
2022-12-03T01:31:41.858Z,17.90
2022-12-03T01:34:50.689Z,17.00
2022-12-03T01:37:53.821Z,18.00
2022-12-03T01:40:56.848Z,18.50
2022-12-03T01:44:00.192Z,17.70
2022-12-03T01:47:06.489Z,18.40
2022-12-03T01:50:18.017Z,16.40
2022-12-03T01:53:21.001Z,17.20
2022-12-03T01:56:24.502Z,18.80
2022-12-03T01:59:37.336Z,18.00
2022-12-03T02:02:40.325Z,17.80
2022-12-03T02:05:43.478Z,17.10
2022-12-03T02:08:48.112Z,17.30
2022-12-03T02:11:51.098Z,16.10
2022-12-03T02:14:55.111Z,16.00
2022-12-03T02:17:58.068Z,19.20
2022-12-03T02:21:40.849Z,16.80
2022-12-03T02:25:13.533Z,18.00
2022-12-03T02:28:16.632Z,16.60
2022-12-03T02:31:19.500Z,17.30
2022-12-03T02:34:37.676Z,17.00
2022-12-03T02:37:42.305Z,17.10
2022-12-03T02:40:47.365Z,17.20
2022-12-03T02:43:50.243Z,17.80
2022-12-03T02:46:53.103Z,17.70
2022-12-03T02:49:56.894Z,17.10
2022-12-03T02:53:03.171Z,17.20
2022-12-03T02:56:06.664Z,18.20
2022-12-03T02:59:09.684Z,18.30
2022-12-03T03:02:14.710Z,18.90
2022-12-03T03:05:21.946Z,16.80
2022-12-03T03:08:25.710Z,17.50
2022-12-03T03:11:28.624Z,17.70
2022-12-03T03:14:32.697Z,17.50
2022-12-03T03:17:36.156Z,17.80
2022-12-03T03:20:39.897Z,16.40
2022-12-03T03:23:42.699Z,15.50
2022-12-03T03:26:46.000Z,16.60
2022-12-03T03:29:49.015Z,17.10
2022-12-03T03:32:51.895Z,16.80
2022-12-03T03:35:55.063Z,18.30
2022-12-03T03:38:58.517Z,17.20
2022-12-03T03:42:01.623Z,14.20
2022-12-03T03:45:08.700Z,15.80
2022-12-03T03:48:13.107Z,16.80
2022-12-03T03:51:18.878Z,16.00
2022-12-03T03:54:23.360Z,15.70
2022-12-03T03:57:26.584Z,17.50
2022-12-03T04:00:30.447Z,15.10
2022-12-03T04:03:34.874Z,17.80
2022-12-03T04:06:37.756Z,17.00
2022-12-03T04:09:40.609Z,18.20
2022-12-03T04:12:55.421Z,17.50
2022-12-03T04:15:58.402Z,13.10
2022-12-03T04:19:01.202Z,15.70
2022-12-03T04:22:22.850Z,15.50
2022-12-03T04:25:44.478Z,15.30
2022-12-03T04:28:50.152Z,17.50
2022-12-03T04:32:11.959Z,15.70
2022-12-03T04:35:38.007Z,15.30
2022-12-03T04:38:40.860Z,14.70
2022-12-03T04:41:43.847Z,16.40
2022-12-03T04:44:46.820Z,17.70
2022-12-03T04:47:49.800Z,18.00
2022-12-03T04:51:20.454Z,13.90
2022-12-03T04:54:23.346Z,15.10
2022-12-03T04:57:26.158Z,14.10
2022-12-03T05:00:29.010Z,17.90
2022-12-03T05:03:33.839Z,18.70
2022-12-03T05:06:38.096Z,17.70
2022-12-03T05:09:40.852Z,15.80
2022-12-03T05:12:43.800Z,16.30
2022-12-03T05:15:46.753Z,16.00
2022-12-03T05:18:49.609Z,17.20
2022-12-03T05:21:52.466Z,16.90
2022-12-03T05:24:56.316Z,15.80
2022-12-03T05:28:00.181Z,14.30
2022-12-03T05:31:03.305Z,15.40
2022-12-03T05:34:06.162Z,14.40
2022-12-03T05:37:09.027Z,15.20
2022-12-03T05:40:13.099Z,15.10
2022-12-03T05:43:16.007Z,14.50
2022-12-03T05:46:19.025Z,13.20
2022-12-03T05:49:37.559Z,14.10
2022-12-03T05:52:40.488Z,14.80
2022-12-03T05:55:43.406Z,14.50
2022-12-03T05:58:46.195Z,14.20
2022-12-03T06:01:49.015Z,11.80
2022-12-03T06:04:52.319Z,13.70
2022-12-03T06:07:55.564Z,14.80
2022-12-03T06:10:58.352Z,13.30
2022-12-03T06:14:26.696Z,13.90
2022-12-03T06:17:29.530Z,13.60
2022-12-03T06:20:32.365Z,14.20
2022-12-03T06:23:35.364Z,15.30
2022-12-03T06:26:38.552Z,13.20
2022-12-03T06:29:41.366Z,13.00
2022-12-03T06:32:44.220Z,12.80
2022-12-03T06:35:47.068Z,12.30
2022-12-03T06:38:49.889Z,13.90
2022-12-03T06:41:54.768Z,13.60
2022-12-03T06:44:57.864Z,14.60
2022-12-03T06:48:00.777Z,14.70
2022-12-03T06:51:03.774Z,14.40
2022-12-03T06:54:07.107Z,16.20
2022-12-03T06:57:09.955Z,16.30
2022-12-03T07:00:13.282Z,18.30
2022-12-03T07:03:16.227Z,15.30
2022-12-03T07:06:19.133Z,14.70
2022-12-03T07:09:22.026Z,15.10
2022-12-03T07:12:24.921Z,15.80
2022-12-03T07:15:27.744Z,16.20
2022-12-03T07:18:30.558Z,16.00
2022-12-03T07:21:33.543Z,15.40
2022-12-03T07:24:36.571Z,14.70
2022-12-03T07:27:39.404Z,16.80
2022-12-03T07:30:42.295Z,16.20
2022-12-03T07:33:45.400Z,14.50
2022-12-03T07:36:48.328Z,15.70
2022-12-03T07:39:52.664Z,16.60
2022-12-03T07:42:55.548Z,17.90
2022-12-03T07:45:58.440Z,16.90
2022-12-03T07:49:01.522Z,17.00
2022-12-03T07:52:04.404Z,15.90
2022-12-03T07:55:07.711Z,17.00
2022-12-03T07:58:10.664Z,18.50
2022-12-03T08:01:13.832Z,18.70
2022-12-03T08:04:34.709Z,18.00
2022-12-03T08:07:39.013Z,16.90
2022-12-03T08:10:43.404Z,16.60
2022-12-03T08:13:46.801Z,18.30
2022-12-03T08:16:52.293Z,20.20
2022-12-03T08:19:56.143Z,17.50
2022-12-03T08:22:59.327Z,18.70
2022-12-03T08:26:03.233Z,22.00
2022-12-03T08:29:11.917Z,21.00
2022-12-03T08:32:16.332Z,19.60
2022-12-03T08:35:27.111Z,18.80
2022-12-03T08:38:36.536Z,16.00
2022-12-03T08:42:01.775Z,18.10
2022-12-03T08:45:54.290Z,18.00
2022-12-03T08:48:57.152Z,17.60
2022-12-03T08:52:30.946Z,20.00
2022-12-03T08:55:38.160Z,18.00
2022-12-03T08:58:46.424Z,18.20
2022-12-03T09:01:50.480Z,17.80
2022-12-03T09:04:55.001Z,19.70
2022-12-03T09:07:58.124Z,20.00
2022-12-03T09:11:01.630Z,19.90
2022-12-03T09:14:05.146Z,19.80
2022-12-03T09:17:10.149Z,19.40
2022-12-03T09:20:13.151Z,19.60
2022-12-03T09:23:15.965Z,18.80
2022-12-03T09:26:18.909Z,19.10
2022-12-03T09:29:21.741Z,20.80
2022-12-03T09:32:24.887Z,21.80
2022-12-03T09:35:28.101Z,20.40
2022-12-03T09:38:30.924Z,18.60
2022-12-03T09:41:33.878Z,20.90
2022-12-03T09:44:38.074Z,21.60
2022-12-03T09:47:49.469Z,23.70
2022-12-03T09:50:52.671Z,22.40
2022-12-03T09:53:55.498Z,20.20
2022-12-03T09:57:02.508Z,20.40
2022-12-03T10:00:19.358Z,23.70
2022-12-03T10:03:30.037Z,24.10
2022-12-03T10:06:33.228Z,20.60
2022-12-03T10:09:58.198Z,21.60
2022-12-03T10:13:01.453Z,21.80
2022-12-03T10:16:04.553Z,22.10
2022-12-03T10:19:17.612Z,23.40
2022-12-03T10:22:20.437Z,25.00
2022-12-03T10:25:23.713Z,21.50
2022-12-03T10:28:39.284Z,23.40
2022-12-03T10:31:42.246Z,21.80
2022-12-03T10:34:45.978Z,21.70
2022-12-03T10:38:02.079Z,23.10
2022-12-03T10:41:22.088Z,23.60
2022-12-03T10:44:30.713Z,22.30
2022-12-03T10:47:33.729Z,22.40
2022-12-03T10:50:37.559Z,22.30
2022-12-03T10:53:41.331Z,22.70
2022-12-03T10:56:45.233Z,23.80
2022-12-03T10:59:48.259Z,23.80
2022-12-03T11:02:56.746Z,23.00
2022-12-03T11:06:01.810Z,21.90
2022-12-03T11:09:08.972Z,22.60
2022-12-03T11:12:19.941Z,21.70
2022-12-03T11:16:17.531Z,24.40
2022-12-03T11:22:58.729Z,22.90
2022-12-03T11:26:05.118Z,22.90
2022-12-03T11:30:13.295Z,23.80
2022-12-03T11:33:44.094Z,18.70
2022-12-03T11:37:12.040Z,22.70
2022-12-03T11:40:17.703Z,22.50
2022-12-03T11:43:52.318Z,21.70
2022-12-03T11:46:56.588Z,23.70
2022-12-03T11:50:00.210Z,23.00
2022-12-03T11:53:20.231Z,24.40
2022-12-03T11:56:26.705Z,23.10
2022-12-03T11:59:29.660Z,23.10
2022-12-03T12:02:32.963Z,23.60
2022-12-03T12:05:38.802Z,24.40
2022-12-03T12:08:56.972Z,26.20
2022-12-03T12:12:20.008Z,25.60
2022-12-03T12:15:38.404Z,23.60
2022-12-03T12:18:52.415Z,23.30
2022-12-03T12:22:19.974Z,25.70
2022-12-03T12:25:31.991Z,24.70
2022-12-03T12:28:35.302Z,26.80
2022-12-03T12:31:38.529Z,24.10
2022-12-03T12:34:47.385Z,24.90
2022-12-03T12:37:59.677Z,25.90
2022-12-03T12:41:08.083Z,26.20
2022-12-03T12:44:13.923Z,26.10
2022-12-03T12:47:17.657Z,25.20
2022-12-03T12:50:20.710Z,25.80
2022-12-03T12:53:27.032Z,24.20
2022-12-03T12:56:32.194Z,27.00
2022-12-03T13:00:25.753Z,24.90
2022-12-03T13:03:38.217Z,25.60
2022-12-03T13:06:50.986Z,26.50
2022-12-03T13:11:00.195Z,28.00
2022-12-03T13:15:22.691Z,23.40
2022-12-03T13:18:51.161Z,25.80
2022-12-03T13:22:07.440Z,24.90
2022-12-03T13:39:16.626Z,25.20
2022-12-03T13:42:38.873Z,24.80
2022-12-03T13:46:11.161Z,26.90
2022-12-03T13:54:21.262Z,24.50
2022-12-03T13:58:32.654Z,28.40
2022-12-03T14:01:53.790Z,25.50
2022-12-03T14:10:05.443Z,28.20
2022-12-03T14:40:21.587Z,31.20
2022-12-03T14:44:35.051Z,30.00
2022-12-03T15:06:24.948Z,29.50
2022-12-03T15:10:43.677Z,28.20
2022-12-03T15:22:18.033Z,32.30
2022-12-03T15:34:32.988Z,29.10
2022-12-03T15:37:37.680Z,30.70
2022-12-03T15:40:41.751Z,30.40
2022-12-03T15:43:47.048Z,31.30
2022-12-03T15:46:56.607Z,30.70
2022-12-03T15:50:48.675Z,32.60
2022-12-03T15:54:45.571Z,33.80
2022-12-03T15:57:44.845Z,30.50
2022-12-03T16:01:36.051Z,30.40
2022-12-03T16:05:59.525Z,31.80
2022-12-03T16:08:52.511Z,30.30
2022-12-03T16:13:07.735Z,31.70
2022-12-03T16:16:03.562Z,27.60
2022-12-03T16:20:16.478Z,32.20
2022-12-03T16:23:06.869Z,34.20
2022-12-03T16:26:44.614Z,30.90
2022-12-03T16:37:13.826Z,29.20
2022-12-03T16:40:40.012Z,28.50
2022-12-03T16:43:48.258Z,30.80
2022-12-03T16:47:11.710Z,32.20
2022-12-03T16:50:29.878Z,33.90
2022-12-03T16:57:00.719Z,31.30
2022-12-03T17:00:34.562Z,30.30
2022-12-03T17:03:43.251Z,30.90
2022-12-03T17:07:07.108Z,35.70
2022-12-03T17:10:17.429Z,33.20
2022-12-03T17:13:29.803Z,35.80
2022-12-03T17:16:43.959Z,34.20
2022-12-03T17:19:46.956Z,36.60
2022-12-03T17:22:52.316Z,37.70
2022-12-03T17:26:00.546Z,37.00
2022-12-03T17:29:05.647Z,34.70
2022-12-03T17:32:08.662Z,32.10
2022-12-03T17:35:12.266Z,34.70
2022-12-03T17:38:15.457Z,35.40
2022-12-03T17:41:23.717Z,40.70
2022-12-03T17:44:29.020Z,34.80
2022-12-03T17:47:31.950Z,36.70
2022-12-03T17:50:35.064Z,33.60
2022-12-03T17:53:39.296Z,37.40
2022-12-03T17:57:11.084Z,35.50
2022-12-03T18:00:22.707Z,34.00
2022-12-03T18:03:34.514Z,32.80
2022-12-03T18:06:43.863Z,32.90
2022-12-03T18:13:41.721Z,37.60
2022-12-03T18:16:47.780Z,32.60
2022-12-03T18:19:57.423Z,33.80
2022-12-03T18:23:08.837Z,33.50
2022-12-03T18:26:15.608Z,36.00
2022-12-03T18:29:19.281Z,34.60
2022-12-03T18:32:30.226Z,33.80
2022-12-03T18:35:42.366Z,33.80
2022-12-03T18:42:52.106Z,35.50
2022-12-03T18:46:02.390Z,35.90
2022-12-03T18:52:31.872Z,27.30
2022-12-03T18:55:42.151Z,33.80
2022-12-03T18:58:54.116Z,35.70
2022-12-03T19:02:01.139Z,34.70
2022-12-03T19:05:37.463Z,34.80
2022-12-03T19:09:32.491Z,34.20
2022-12-03T19:16:22.573Z,31.30
2022-12-03T19:20:15.261Z,31.90
2022-12-03T19:42:07.565Z,34.00
2022-12-03T19:42:07.774Z,34.80
2022-12-03T19:42:32.771Z,32.90
2022-12-03T20:53:03.585Z,33.60
2022-12-03T22:59:37.492Z,36.50
2022-12-03T23:02:40.614Z,35.90
2022-12-03T23:05:48.124Z,38.80
2022-12-03T23:08:52.024Z,34.60
2022-12-03T23:11:58.299Z,34.70
2022-12-03T23:15:03.522Z,35.00
2022-12-03T23:18:06.759Z,38.50
2022-12-03T23:21:10.122Z,39.40
2022-12-03T23:24:13.002Z,36.00
2022-12-03T23:27:16.436Z,36.20
2022-12-03T23:30:19.495Z,35.40
2022-12-03T23:33:24.690Z,39.80
2022-12-03T23:36:30.549Z,39.60
2022-12-03T23:39:37.006Z,38.90
2022-12-03T23:42:40.086Z,36.10
2022-12-03T23:45:44.693Z,36.00
2022-12-03T23:48:48.781Z,38.80
2022-12-03T23:51:54.668Z,41.50
2022-12-03T23:54:58.898Z,37.30
2022-12-03T23:58:01.882Z,36.50
